createdAt,value
2019-05-16T00:01:01.220Z,4.27
2019-05-16T00:03:31.484Z,5.27
2019-05-16T00:06:01.753Z,5.70
2019-05-16T00:08:32.028Z,6.07
2019-05-16T00:11:02.267Z,6.60
2019-05-16T00:13:32.516Z,4.80
2019-05-16T00:16:02.769Z,3.33
2019-05-16T00:18:33.038Z,4.67
2019-05-16T00:21:03.349Z,3.93
2019-05-16T00:23:33.596Z,2.67
2019-05-16T00:26:03.852Z,2.60
2019-05-16T00:28:34.163Z,4.60
2019-05-16T00:31:04.409Z,5.97
2019-05-16T00:33:34.695Z,5.97
2019-05-16T00:36:06.114Z,3.97
2019-05-16T00:38:38.005Z,6.50
2019-05-16T00:41:08.686Z,3.57
2019-05-16T00:43:38.979Z,4.17
2019-05-16T00:46:09.584Z,7.23
2019-05-16T00:48:39.832Z,9.07
2019-05-16T00:51:10.078Z,5.97
2019-05-16T00:53:40.599Z,4.37
2019-05-16T00:56:10.911Z,7.10
2019-05-16T00:58:41.193Z,4.57
2019-05-16T01:01:11.465Z,5.30
2019-05-16T01:03:41.736Z,3.93
2019-05-16T01:06:18.564Z,6.03
2019-05-16T01:08:43.956Z,4.67
2019-05-16T01:11:14.497Z,6.73
2019-05-16T01:13:44.740Z,3.53
2019-05-16T01:16:15.058Z,5.83
2019-05-16T01:18:45.405Z,7.07
2019-05-16T01:21:18.367Z,8.57
2019-05-16T01:23:48.287Z,8.77
2019-05-16T01:26:18.830Z,8.23
2019-05-16T01:28:49.065Z,8.17
2019-05-16T01:31:19.393Z,7.60
2019-05-16T01:33:49.756Z,6.23
2019-05-16T01:36:33.346Z,5.67
2019-05-16T01:38:52.316Z,8.97
2019-05-16T01:41:22.593Z,8.57
2019-05-16T01:43:52.835Z,7.17
2019-05-16T01:46:23.081Z,6.93
2019-05-16T01:48:53.326Z,6.33
2019-05-16T01:51:23.587Z,10.63
2019-05-16T01:53:53.871Z,4.23
2019-05-16T01:56:24.120Z,7.37
2019-05-16T01:58:54.441Z,5.43
2019-05-16T02:01:24.672Z,9.43
2019-05-16T02:03:54.943Z,6.37
2019-05-16T02:06:25.184Z,6.97
2019-05-16T02:08:57.845Z,8.20
2019-05-16T02:11:28.509Z,6.73
2019-05-16T02:13:59.042Z,10.20
2019-05-16T02:16:29.293Z,5.83
2019-05-16T02:18:59.802Z,5.70
2019-05-16T02:21:30.084Z,8.53
2019-05-16T02:24:01.991Z,8.73
2019-05-16T02:26:32.432Z,7.87
2019-05-16T02:29:02.729Z,6.77
2019-05-16T02:31:33.011Z,8.67
2019-05-16T02:34:04.871Z,6.90
2019-05-16T02:36:35.284Z,4.33
2019-05-16T02:39:11.162Z,6.67
2019-05-16T02:41:45.681Z,9.30
2019-05-16T02:44:12.770Z,9.70
2019-05-16T02:46:43.018Z,8.67
2019-05-16T02:49:13.286Z,9.10
2019-05-16T02:51:44.034Z,14.23
2019-05-16T02:54:14.269Z,8.03
2019-05-16T02:56:44.553Z,9.00
2019-05-16T02:59:16.005Z,4.17
2019-05-16T03:01:46.274Z,8.00
2019-05-16T03:04:17.123Z,6.30
2019-05-16T03:06:47.389Z,8.87
2019-05-16T03:09:17.669Z,7.43
2019-05-16T03:11:50.946Z,12.97
2019-05-16T03:14:21.404Z,12.30
2019-05-16T03:16:51.998Z,9.67
2019-05-16T03:19:22.242Z,8.67
2019-05-16T03:21:52.531Z,4.50
2019-05-16T03:24:24.518Z,7.90
2019-05-16T03:26:54.802Z,5.17
2019-05-16T03:29:25.074Z,5.57
2019-05-16T03:31:55.325Z,5.47
2019-05-16T03:34:26.625Z,7.97
2019-05-16T03:36:57.067Z,7.93
2019-05-16T03:39:27.413Z,14.43
2019-05-16T03:41:57.660Z,7.53
2019-05-16T03:44:31.480Z,5.60
2019-05-16T03:47:01.030Z,6.17
2019-05-16T03:49:31.534Z,4.10
2019-05-16T03:52:01.877Z,3.80
2019-05-16T03:54:32.107Z,6.63
2019-05-16T03:57:02.403Z,6.13
2019-05-16T03:59:33.406Z,5.47
2019-05-16T04:02:03.687Z,5.73
2019-05-16T04:04:33.969Z,6.60
2019-05-16T04:07:04.254Z,5.27
2019-05-16T04:09:34.545Z,6.23
2019-05-16T04:12:04.786Z,4.93
2019-05-16T04:14:35.285Z,4.47
2019-05-16T04:17:05.536Z,7.50
2019-05-16T04:19:35.791Z,5.93
2019-05-16T04:22:10.502Z,7.87
2019-05-16T04:24:41.834Z,6.03
2019-05-16T04:27:12.381Z,4.30
2019-05-16T04:29:42.648Z,7.53
2019-05-16T04:32:12.925Z,4.20
2019-05-16T04:34:43.216Z,4.87
2019-05-16T04:37:14.489Z,5.23
2019-05-16T04:39:44.747Z,6.57
2019-05-16T04:42:14.976Z,4.70
2019-05-16T04:44:46.887Z,5.00
2019-05-16T04:47:17.127Z,2.97
2019-05-16T04:49:47.407Z,4.73
2019-05-16T04:52:17.684Z,3.73
2019-05-16T04:54:51.035Z,4.77
2019-05-16T04:57:20.922Z,3.67
2019-05-16T04:59:51.322Z,7.10
2019-05-16T05:02:21.630Z,5.60
2019-05-16T05:04:52.185Z,5.93
2019-05-16T05:07:22.446Z,5.67
2019-05-16T05:09:52.682Z,4.63
2019-05-16T05:12:22.960Z,7.23
2019-05-16T05:14:53.468Z,7.00
2019-05-16T05:17:23.714Z,5.77
2019-05-16T05:19:53.990Z,7.17
2019-05-16T05:22:24.274Z,4.20
2019-05-16T05:24:54.560Z,5.73
2019-05-16T05:27:24.843Z,5.13
2019-05-16T05:29:55.577Z,4.67
2019-05-16T05:32:25.866Z,3.13
2019-05-16T05:34:56.110Z,5.40
2019-05-16T05:37:26.356Z,7.30
2019-05-16T05:39:56.642Z,6.27
2019-05-16T05:42:26.902Z,9.97
2019-05-16T05:44:57.169Z,5.97
2019-05-16T05:47:27.410Z,8.00
2019-05-16T05:50:00.457Z,6.70
2019-05-16T05:52:30.366Z,8.67
2019-05-16T05:55:00.930Z,8.10
2019-05-16T05:57:31.108Z,5.13
2019-05-16T06:00:01.360Z,4.43
2019-05-16T06:02:31.624Z,7.57
2019-05-16T06:05:01.881Z,8.97
2019-05-16T06:07:32.124Z,6.47
2019-05-16T06:10:02.414Z,4.70
2019-05-16T06:12:32.650Z,3.00
2019-05-16T06:15:08.095Z,4.33
2019-05-16T06:17:35.263Z,4.77
2019-05-16T06:20:06.185Z,7.27
2019-05-16T06:22:36.450Z,3.87
2019-05-16T06:25:06.955Z,7.80
2019-05-16T06:27:37.280Z,5.87
2019-05-16T06:30:11.447Z,6.87
2019-05-16T06:32:40.843Z,5.23
2019-05-16T06:35:11.117Z,5.77
2019-05-16T06:37:41.391Z,7.93
2019-05-16T06:40:11.678Z,5.83
2019-05-16T06:42:41.963Z,7.43
2019-05-16T06:45:12.231Z,6.20
2019-05-16T06:47:42.575Z,4.50
2019-05-16T06:50:13.104Z,4.07
2019-05-16T06:52:45.790Z,3.83
2019-05-16T06:55:15.359Z,5.50
2019-05-16T06:57:45.598Z,4.03
2019-05-16T07:00:15.882Z,8.23
2019-05-16T07:02:46.154Z,4.27
2019-05-16T07:05:16.402Z,5.40
2019-05-16T07:07:46.645Z,8.27
2019-05-16T07:10:16.927Z,5.60
2019-05-16T07:12:47.163Z,6.40
2019-05-16T07:15:17.405Z,6.60
2019-05-16T07:17:47.656Z,10.27
2019-05-16T07:20:20.720Z,9.40
2019-05-16T07:22:50.470Z,10.03
2019-05-16T07:25:21.045Z,10.53
2019-05-16T07:27:51.354Z,13.30
2019-05-16T07:30:21.605Z,11.13
2019-05-16T07:32:51.894Z,13.13
2019-05-16T07:35:22.134Z,14.83
2019-05-16T07:37:52.437Z,14.10
2019-05-16T07:40:26.490Z,13.50
2019-05-16T07:42:54.674Z,14.80
2019-05-16T07:45:24.929Z,14.93
2019-05-16T07:47:55.233Z,12.73
2019-05-16T07:50:25.488Z,9.90
2019-05-16T07:52:55.776Z,13.53
2019-05-16T07:55:26.057Z,11.17
2019-05-16T07:57:56.783Z,12.83
2019-05-16T08:00:45.914Z,10.00
2019-05-16T08:02:59.989Z,8.97
2019-05-16T08:05:33.366Z,7.60
2019-05-16T08:08:02.378Z,10.20
2019-05-16T08:10:40.613Z,8.73
2019-05-16T08:13:04.676Z,8.87
2019-05-16T08:15:35.086Z,8.87
2019-05-16T08:18:05.344Z,8.70
2019-05-16T08:20:35.699Z,4.23
2019-05-16T08:23:06.011Z,7.83
2019-05-16T08:25:37.506Z,8.03
2019-05-16T08:28:07.832Z,5.13
2019-05-16T08:30:41.269Z,6.47
2019-05-16T08:35:42.758Z,7.27
2019-05-16T08:38:13.637Z,5.53
2019-05-16T08:43:15.945Z,8.17
2019-05-16T08:45:46.225Z,5.43
2019-05-16T08:48:16.500Z,4.27
2019-05-16T08:50:11.346Z,6.07
2019-05-16T08:50:53.976Z,5.70
2019-05-16T08:53:21.600Z,3.50
2019-05-16T08:55:51.018Z,5.20
2019-05-16T08:58:22.408Z,3.10
2019-05-16T09:00:55.599Z,5.70
2019-05-16T09:03:25.804Z,5.97
2019-05-16T09:05:56.048Z,3.80
2019-05-16T09:08:26.301Z,4.20
2019-05-16T09:10:20.961Z,6.47
2019-05-16T09:11:02.061Z,4.70
2019-05-16T09:13:28.627Z,3.43
2019-05-16T09:15:58.899Z,4.83
2019-05-16T09:18:29.269Z,5.90
2019-05-16T09:20:59.497Z,4.77
2019-05-16T09:23:29.736Z,4.83
2019-05-16T09:25:59.999Z,4.83
2019-05-16T09:28:30.396Z,5.07
2019-05-16T09:31:00.705Z,6.07
2019-05-16T09:33:30.974Z,7.00
2019-05-16T09:36:01.253Z,7.17
2019-05-16T09:38:31.523Z,6.70
2019-05-16T09:41:02.098Z,5.30
2019-05-16T09:43:32.539Z,9.07
2019-05-16T09:46:04.067Z,9.30
2019-05-16T09:48:37.718Z,5.10
2019-05-16T09:51:06.795Z,17.00
2019-05-16T09:53:37.127Z,9.67
2019-05-16T09:56:07.551Z,6.13
2019-05-16T09:58:37.800Z,4.83
2019-05-16T10:01:08.082Z,6.67
2019-05-16T10:03:38.356Z,8.83
2019-05-16T10:06:08.892Z,6.30
2019-05-16T10:08:39.394Z,5.63
2019-05-16T10:11:09.937Z,7.53
2019-05-16T10:13:40.284Z,6.63
2019-05-16T10:16:10.537Z,5.97
2019-05-16T10:18:40.796Z,8.77
2019-05-16T10:21:11.039Z,10.77
2019-05-16T10:23:41.298Z,8.37
2019-05-16T10:26:11.584Z,6.47
2019-05-16T10:28:41.869Z,7.53
2019-05-16T10:31:12.169Z,7.20
2019-05-16T10:33:42.436Z,9.23
2019-05-16T10:36:12.721Z,7.87
2019-05-16T10:38:43.016Z,10.77
2019-05-16T10:41:13.334Z,4.77
2019-05-16T10:43:43.696Z,5.03
2019-05-16T10:46:13.957Z,6.60
2019-05-16T10:48:46.775Z,5.43
2019-05-16T10:51:16.956Z,5.17
2019-05-16T10:54:11.815Z,3.73
2019-05-16T10:56:19.336Z,6.10
2019-05-16T10:59:21.551Z,3.10
2019-05-16T11:01:27.475Z,3.40
2019-05-16T11:03:53.623Z,4.27
2019-05-16T11:06:28.682Z,3.80
2019-05-16T11:08:57.159Z,5.10
2019-05-16T11:11:27.640Z,3.00
2019-05-16T11:13:57.886Z,4.67
2019-05-16T11:16:28.215Z,4.63
2019-05-16T11:19:13.718Z,4.37
2019-05-16T11:21:30.409Z,3.90
2019-05-16T11:24:00.679Z,3.17
2019-05-16T11:26:31.011Z,4.10
2019-05-16T11:29:01.327Z,3.40
2019-05-16T11:31:31.654Z,3.80
2019-05-16T11:34:01.947Z,3.93
2019-05-16T11:36:32.215Z,6.73
2019-05-16T11:39:02.548Z,6.37
2019-05-16T11:41:32.851Z,6.63
2019-05-16T11:44:03.718Z,6.73
2019-05-16T11:46:33.964Z,5.30
2019-05-16T11:49:04.256Z,6.93
2019-05-16T11:51:34.510Z,5.87
2019-05-16T11:54:06.790Z,7.57
2019-05-16T11:56:37.093Z,6.40
2019-05-16T11:59:07.927Z,8.27
2019-05-16T12:01:38.297Z,6.33
2019-05-16T12:04:08.591Z,8.03
2019-05-16T12:06:38.839Z,7.20
2019-05-16T12:09:09.270Z,8.03
2019-05-16T12:11:39.561Z,7.10
2019-05-16T12:14:09.830Z,10.07
2019-05-16T12:16:40.105Z,8.53
2019-05-16T12:19:10.514Z,7.87
2019-05-16T12:21:40.821Z,9.50
2019-05-16T12:24:11.140Z,8.67
2019-05-16T12:26:41.402Z,8.87
2019-05-16T12:29:11.689Z,11.37
2019-05-16T12:31:55.314Z,12.47
2019-05-16T12:34:13.949Z,9.47
2019-05-16T12:36:44.263Z,11.07
2019-05-16T12:39:17.074Z,11.23
2019-05-16T12:41:49.262Z,12.10
2019-05-16T12:44:18.531Z,15.77
2019-05-16T12:46:48.861Z,13.93
2019-05-16T12:49:19.159Z,13.33
2019-05-16T12:51:49.446Z,14.17
2019-05-16T12:54:19.709Z,16.87
2019-05-16T12:56:50.077Z,11.73
2019-05-16T12:59:21.641Z,13.17
2019-05-16T13:01:52.138Z,14.23
2019-05-16T13:04:22.420Z,11.47
2019-05-16T13:06:52.692Z,11.23
2019-05-16T13:09:23.002Z,14.30
2019-05-16T13:11:53.272Z,14.10
2019-05-16T13:14:24.338Z,11.20
2019-05-16T13:16:54.651Z,15.20
2019-05-16T13:19:32.010Z,13.30
2019-05-16T13:21:57.764Z,12.03
2019-05-16T13:24:28.168Z,12.00
2019-05-16T13:26:58.438Z,11.17
2019-05-16T13:29:28.695Z,14.47
2019-05-16T13:31:59.213Z,13.50
2019-05-16T13:34:29.471Z,13.30
2019-05-16T13:36:59.761Z,11.43
2019-05-16T13:39:30.052Z,11.80
2019-05-16T13:42:00.406Z,13.27
2019-05-16T13:44:30.665Z,13.53
2019-05-16T13:47:00.941Z,14.37
2019-05-16T13:49:31.278Z,11.67
2019-05-16T13:52:01.580Z,12.33
2019-05-16T13:54:31.853Z,12.47
2019-05-16T13:57:02.144Z,10.80
2019-05-16T13:59:32.418Z,12.03
2019-05-16T14:02:02.723Z,15.57
2019-05-16T14:04:33.042Z,15.00
2019-05-16T14:07:03.611Z,12.47
2019-05-16T14:09:33.963Z,12.07
2019-05-16T14:12:06.611Z,11.10
2019-05-16T14:14:41.904Z,12.17
2019-05-16T14:17:14.158Z,14.97
2019-05-16T14:19:40.676Z,15.87
2019-05-16T14:22:10.945Z,11.50
2019-05-16T14:24:41.189Z,10.30
2019-05-16T14:27:11.495Z,14.83
2019-05-16T14:29:41.763Z,12.23
2019-05-16T14:32:12.063Z,12.73
2019-05-16T14:34:46.338Z,14.87
2019-05-16T14:37:14.324Z,12.63
2019-05-16T14:39:48.494Z,13.20
2019-05-16T14:42:17.884Z,14.10
2019-05-16T14:45:03.670Z,12.53
2019-05-16T14:47:20.408Z,12.40
2019-05-16T14:49:50.970Z,14.60
2019-05-16T14:52:21.239Z,12.33
2019-05-16T14:54:51.994Z,13.43
2019-05-16T14:57:22.287Z,14.20
2019-05-16T14:59:52.582Z,16.17
2019-05-16T15:02:22.882Z,14.90
2019-05-16T15:04:53.135Z,16.30
2019-05-16T15:07:23.445Z,18.07
2019-05-16T15:09:53.702Z,14.23
2019-05-16T15:12:26.646Z,16.53
2019-05-16T15:14:58.789Z,15.23
2019-05-16T15:17:27.984Z,15.13
2019-05-16T15:19:58.283Z,14.10
2019-05-16T15:22:28.557Z,16.87
2019-05-16T15:24:59.506Z,16.13
2019-05-16T15:27:29.902Z,17.00
2019-05-16T15:30:00.284Z,15.57
2019-05-16T15:32:31.857Z,17.40
2019-05-16T15:35:02.268Z,17.27
2019-05-16T15:37:32.524Z,17.57
2019-05-16T15:40:02.825Z,17.00
2019-05-16T15:42:33.088Z,18.33
2019-05-16T15:45:03.815Z,16.87
2019-05-16T15:47:37.164Z,18.20
2019-05-16T15:50:09.333Z,18.30
2019-05-16T15:52:39.675Z,16.47
2019-05-16T15:55:10.613Z,16.93
2019-05-16T15:57:40.882Z,18.67
2019-05-16T16:00:11.253Z,17.40
2019-05-16T16:02:41.518Z,16.07
2019-05-16T16:05:12.378Z,14.30
2019-05-16T16:07:42.816Z,17.03
2019-05-16T16:10:13.086Z,17.43
2019-05-16T16:12:43.356Z,17.23
2019-05-16T16:15:13.679Z,22.30
2019-05-16T16:17:43.947Z,21.53
2019-05-16T16:20:16.730Z,20.30
2019-05-16T16:22:46.882Z,21.50
2019-05-16T16:25:17.793Z,21.13
2019-05-16T16:27:48.250Z,21.10
2019-05-16T16:30:18.829Z,18.97
2019-05-16T16:32:49.795Z,19.50
2019-05-16T16:35:20.344Z,22.97
2019-05-16T16:37:50.651Z,20.47
2019-05-16T16:40:20.972Z,22.17
2019-05-16T16:42:51.505Z,22.97
2019-05-16T16:45:21.874Z,19.60
2019-05-16T16:47:52.176Z,19.30
2019-05-16T16:50:22.912Z,21.63
2019-05-16T16:52:53.211Z,22.80
2019-05-16T16:55:23.521Z,20.90
2019-05-16T16:57:55.880Z,25.90
2019-05-16T17:00:27.968Z,29.50
2019-05-16T17:03:05.669Z,24.47
2019-05-16T17:05:29.924Z,20.23
2019-05-16T17:08:00.224Z,27.43
2019-05-16T17:10:30.533Z,22.73
2019-05-16T17:13:00.832Z,21.00
2019-05-16T17:15:31.126Z,23.47
2019-05-16T17:18:01.416Z,23.23
2019-05-16T17:20:31.693Z,26.67
2019-05-16T17:23:01.955Z,28.50
2019-05-16T17:25:33.005Z,69.23
2019-05-16T17:28:03.269Z,71.77
2019-05-16T17:30:33.574Z,56.97
2019-05-16T17:33:03.834Z,29.77
2019-05-16T17:35:34.104Z,28.90
2019-05-16T17:38:06.745Z,26.50
2019-05-16T17:40:37.980Z,19.80
2019-05-16T17:43:08.567Z,16.77
2019-05-16T17:45:38.834Z,16.47
2019-05-16T17:48:09.131Z,14.73
2019-05-16T17:50:39.424Z,14.33
2019-05-16T17:53:09.673Z,11.60
2019-05-16T17:55:39.972Z,13.37
2019-05-16T17:58:10.235Z,12.70
2019-05-16T18:00:40.512Z,15.53
2019-05-16T18:03:11.119Z,15.00
2019-05-16T18:05:41.427Z,13.47
2019-05-16T18:08:11.691Z,21.57
2019-05-16T18:10:41.990Z,19.33
2019-05-16T18:13:12.303Z,18.10
2019-05-16T18:15:42.601Z,20.53
2019-05-16T18:18:12.859Z,16.97
2019-05-16T18:20:55.734Z,19.93
2019-05-16T18:23:16.455Z,19.50
2019-05-16T18:25:47.110Z,22.23
2019-05-16T18:28:17.705Z,21.30
2019-05-16T18:30:48.205Z,19.80
2019-05-16T18:33:18.499Z,20.10
2019-05-16T18:35:48.757Z,23.00
2019-05-16T18:38:19.030Z,25.37
2019-05-16T18:40:49.330Z,21.70
2019-05-16T18:43:21.310Z,21.47
2019-05-16T18:45:51.789Z,26.50
2019-05-16T18:48:22.098Z,31.90
2019-05-16T18:50:52.653Z,34.27
2019-05-16T18:53:22.921Z,31.80
2019-05-16T18:55:53.190Z,29.80
2019-05-16T18:58:23.462Z,36.87
2019-05-16T19:00:53.759Z,34.80
2019-05-16T19:03:24.059Z,29.10
2019-05-16T19:05:56.937Z,34.37
2019-05-16T19:08:27.021Z,36.20
2019-05-16T19:11:00.042Z,34.13
2019-05-16T19:13:29.471Z,31.83
2019-05-16T19:16:00.929Z,35.87
2019-05-16T19:18:31.205Z,34.53
2019-05-16T19:21:01.513Z,35.27
2019-05-16T19:23:31.815Z,38.07
2019-05-16T19:26:02.119Z,30.37
2019-05-16T19:28:32.412Z,30.77
2019-05-16T19:31:02.774Z,28.73
2019-05-16T19:33:33.078Z,30.47
2019-05-16T19:36:03.379Z,31.77
2019-05-16T19:38:33.665Z,33.57
2019-05-16T19:41:03.927Z,41.23
2019-05-16T19:43:34.196Z,29.93
2019-05-16T19:46:04.491Z,30.00
2019-05-16T19:48:36.908Z,34.87
2019-05-16T19:51:07.473Z,35.93
2019-05-16T19:53:38.064Z,35.97
2019-05-16T19:56:08.500Z,34.30
2019-05-16T19:58:39.060Z,30.33
2019-05-16T20:01:09.377Z,35.17
2019-05-16T20:03:39.641Z,38.60
2019-05-16T20:06:09.960Z,39.50
2019-05-16T20:08:40.223Z,36.40
2019-05-16T20:11:10.486Z,34.97
2019-05-16T20:13:40.824Z,39.60
2019-05-16T20:16:11.146Z,42.27
2019-05-16T20:18:41.706Z,37.60
2019-05-16T20:21:11.987Z,37.97
2019-05-16T20:23:42.540Z,35.20
2019-05-16T20:26:12.868Z,37.20
2019-05-16T20:28:43.143Z,37.73
2019-05-16T20:31:13.441Z,43.67
2019-05-16T20:33:43.699Z,49.47
2019-05-16T20:36:14.013Z,47.17
2019-05-16T20:38:46.476Z,37.00
2019-05-16T20:41:17.115Z,46.27
2019-05-16T20:43:47.824Z,45.07
2019-05-16T20:46:18.107Z,44.27
2019-05-16T20:48:48.389Z,45.80
2019-05-16T20:51:20.212Z,43.13
2019-05-16T20:53:50.697Z,47.57
2019-05-16T20:56:21.159Z,60.00
2019-05-16T20:58:51.446Z,45.07
2019-05-16T21:01:21.740Z,43.80
2019-05-16T21:03:52.257Z,41.77
2019-05-16T21:06:22.552Z,44.60
2019-05-16T21:08:52.889Z,43.30
2019-05-16T21:11:23.144Z,40.87
2019-05-16T21:13:53.446Z,44.97
2019-05-16T21:16:23.964Z,39.37
2019-05-16T21:18:54.221Z,37.27
2019-05-16T21:21:24.491Z,38.27
2019-05-16T21:23:56.488Z,34.40
2019-05-16T21:26:26.751Z,30.97
2019-05-16T21:28:57.089Z,30.93
2019-05-16T21:31:27.679Z,29.23
2019-05-16T21:33:58.059Z,35.87
2019-05-16T21:36:28.321Z,35.30
2019-05-16T21:38:58.614Z,28.63
2019-05-16T21:41:28.907Z,35.80
2019-05-16T21:43:59.205Z,27.57
2019-05-16T21:46:29.460Z,31.47
2019-05-16T21:48:59.727Z,28.67
2019-05-16T21:51:30.253Z,27.37
2019-05-16T21:54:00.618Z,26.10
2019-05-16T21:56:30.885Z,25.47
2019-05-16T21:59:01.481Z,23.80
2019-05-16T22:01:31.762Z,21.73
2019-05-16T22:04:02.009Z,24.37
2019-05-16T22:06:32.271Z,26.40
2019-05-16T22:09:02.564Z,26.47
2019-05-16T22:11:32.846Z,23.40
2019-05-16T22:14:03.157Z,30.43
2019-05-16T22:16:33.412Z,21.60
2019-05-16T22:19:04.460Z,28.60
2019-05-16T22:21:34.722Z,23.93
2019-05-16T22:24:06.634Z,23.03
2019-05-16T22:26:37.089Z,28.20
2019-05-16T22:29:07.411Z,26.03
2019-05-16T22:31:37.744Z,25.83
2019-05-16T22:34:08.028Z,28.77
2019-05-16T22:36:38.594Z,23.77
2019-05-16T22:39:09.143Z,22.20
2019-05-16T22:41:39.437Z,22.37
2019-05-16T22:44:10.050Z,28.90
2019-05-16T22:46:40.312Z,20.77
2019-05-16T22:49:10.608Z,22.37
2019-05-16T22:51:41.172Z,20.97
2019-05-16T22:54:11.453Z,21.27
2019-05-16T22:56:41.702Z,22.30
2019-05-16T22:59:11.961Z,21.67
2019-05-16T23:01:42.216Z,20.40
2019-05-16T23:04:12.484Z,21.97
2019-05-16T23:06:42.779Z,23.20
2019-05-16T23:09:16.297Z,20.03
2019-05-16T23:11:46.400Z,20.97
2019-05-16T23:14:17.158Z,23.57
2019-05-16T23:16:48.060Z,19.50
2019-05-16T23:19:18.340Z,22.20
2019-05-16T23:21:48.630Z,21.70
2019-05-16T23:24:18.911Z,20.50
2019-05-16T23:26:49.178Z,35.90
2019-05-16T23:29:19.431Z,32.87
2019-05-16T23:31:50.890Z,76.47
2019-05-16T23:34:22.200Z,78.70
2019-05-16T23:36:52.460Z,39.47
2019-05-16T23:39:22.718Z,26.97
2019-05-16T23:41:53.011Z,41.80
2019-05-16T23:44:23.293Z,33.70
2019-05-16T23:46:53.569Z,159.13
2019-05-16T23:49:23.828Z,36.73
2019-05-16T23:51:56.664Z,17.17
2019-05-16T23:54:27.829Z,25.80
2019-05-16T23:56:58.229Z,26.63
2019-05-16T23:59:28.509Z,32.97
